sensor_id;sensor_type;location;lat;lon;timestamp;pressure;altitude;pressure_sealevel;temperature;humidity
46876;BME280;32866;50.160;14.768;2022-09-03T00:04:38;99533.22;;;9.83;100.00
46876;BME280;32866;50.160;14.768;2022-09-03T00:07:14;99514.16;;;9.63;100.00
46876;BME280;32866;50.160;14.768;2022-09-03T00:09:46;99529.63;;;9.86;100.00
46876;BME280;32866;50.160;14.768;2022-09-03T00:12:29;99517.31;;;9.61;100.00
46876;BME280;32866;50.160;14.768;2022-09-03T00:15:02;99521.59;;;9.46;100.00
46876;BME280;32866;50.160;14.768;2022-09-03T00:17:48;99520.22;;;9.38;100.00
46876;BME280;32866;50.160;14.768;2022-09-03T00:20:29;99522.00;;;9.28;100.00
46876;BME280;32866;50.160;14.768;2022-09-03T00:22:59;99510.63;;;9.29;100.00
46876;BME280;32866;50.160;14.768;2022-09-03T00:25:48;99522.63;;;9.36;100.00
46876;BME280;32866;50.160;14.768;2022-09-03T00:28:21;99515.69;;;9.31;100.00
46876;BME280;32866;50.160;14.768;2022-09-03T00:30:51;99508.97;;;9.52;100.00
46876;BME280;32866;50.160;14.768;2022-09-03T00:33:23;99516.44;;;9.32;100.00
46876;BME280;32866;50.160;14.768;2022-09-03T00:38:28;99504.25;;;9.00;100.00
46876;BME280;32866;50.160;14.768;2022-09-03T00:48:29;99521.97;;;8.95;100.00
46876;BME280;32866;50.160;14.768;2022-09-03T00:54:05;99521.47;;;8.80;100.00
46876;BME280;32866;50.160;14.768;2022-09-03T00:56:53;99506.13;;;8.66;100.00
46876;BME280;32866;50.160;14.768;2022-09-03T01:03:09;99522.63;;;8.99;100.00
46876;BME280;32866;50.160;14.768;2022-09-03T01:13:49;99518.94;;;9.26;100.00
46876;BME280;32866;50.160;14.768;2022-09-03T01:16:27;99518.63;;;9.04;100.00
46876;BME280;32866;50.160;14.768;2022-09-03T01:25:16;99510.63;;;9.13;100.00
46876;BME280;32866;50.160;14.768;2022-09-03T01:34:15;99486.59;;;8.68;100.00
46876;BME280;32866;50.160;14.768;2022-09-03T01:45:05;99513.53;;;9.22;100.00
46876;BME280;32866;50.160;14.768;2022-09-03T01:47:52;99502.53;;;8.89;100.00
46876;BME280;32866;50.160;14.768;2022-09-03T01:50:30;99508.50;;;8.84;100.00
46876;BME280;32866;50.160;14.768;2022-09-03T01:53:33;99493.69;;;8.65;100.00
46876;BME280;32866;50.160;14.768;2022-09-03T01:56:10;99498.66;;;8.50;100.00
46876;BME280;32866;50.160;14.768;2022-09-03T01:59:08;99492.09;;;8.84;100.00
46876;BME280;32866;50.160;14.768;2022-09-03T02:01:46;99474.06;;;8.30;100.00
46876;BME280;32866;50.160;14.768;2022-09-03T02:04:22;99498.22;;;8.32;100.00
46876;BME280;32866;50.160;14.768;2022-09-03T02:06:49;99505.56;;;8.35;100.00
46876;BME280;32866;50.160;14.768;2022-09-03T02:09:16;99507.59;;;8.31;100.00
46876;BME280;32866;50.160;14.768;2022-09-03T02:11:43;99480.22;;;7.94;100.00
46876;BME280;32866;50.160;14.768;2022-09-03T02:14:11;99498.50;;;8.38;100.00
46876;BME280;32866;50.160;14.768;2022-09-03T02:16:37;99482.97;;;8.14;100.00
46876;BME280;32866;50.160;14.768;2022-09-03T02:19:09;99509.28;;;8.25;100.00
46876;BME280;32866;50.160;14.768;2022-09-03T02:21:38;99510.03;;;8.25;100.00
46876;BME280;32866;50.160;14.768;2022-09-03T02:24:04;99515.91;;;8.24;100.00
46876;BME280;32866;50.160;14.768;2022-09-03T02:26:30;99529.81;;;8.09;100.00
46876;BME280;32866;50.160;14.768;2022-09-03T02:28:56;99508.41;;;8.28;100.00
46876;BME280;32866;50.160;14.768;2022-09-03T02:31:23;99512.06;;;8.45;100.00
46876;BME280;32866;50.160;14.768;2022-09-03T02:33:49;99505.97;;;8.13;100.00
46876;BME280;32866;50.160;14.768;2022-09-03T02:36:27;99531.03;;;8.08;100.00
46876;BME280;32866;50.160;14.768;2022-09-03T02:38:54;99533.81;;;8.05;100.00
46876;BME280;32866;50.160;14.768;2022-09-03T02:41:19;99478.47;;;7.80;100.00
46876;BME280;32866;50.160;14.768;2022-09-03T02:43:51;99522.63;;;8.19;100.00
46876;BME280;32866;50.160;14.768;2022-09-03T02:46:22;99527.56;;;8.04;100.00
46876;BME280;32866;50.160;14.768;2022-09-03T02:48:51;99489.28;;;7.88;100.00
46876;BME280;32866;50.160;14.768;2022-09-03T02:51:17;99508.16;;;8.42;100.00
46876;BME280;32866;50.160;14.768;2022-09-03T02:53:42;99477.56;;;8.31;100.00
46876;BME280;32866;50.160;14.768;2022-09-03T02:56:08;99499.78;;;8.09;100.00
46876;BME280;32866;50.160;14.768;2022-09-03T02:58:34;99511.19;;;8.04;100.00
46876;BME280;32866;50.160;14.768;2022-09-03T03:00:59;99495.06;;;8.13;100.00
46876;BME280;32866;50.160;14.768;2022-09-03T03:03:25;99506.75;;;8.34;100.00
46876;BME280;32866;50.160;14.768;2022-09-03T03:05:53;99509.34;;;8.41;100.00
46876;BME280;32866;50.160;14.768;2022-09-03T03:08:20;99501.16;;;8.41;100.00
46876;BME280;32866;50.160;14.768;2022-09-03T03:10:48;99476.34;;;7.92;100.00
46876;BME280;32866;50.160;14.768;2022-09-03T03:13:15;99508.88;;;8.03;100.00
46876;BME280;32866;50.160;14.768;2022-09-03T03:15:41;99500.03;;;8.18;100.00
46876;BME280;32866;50.160;14.768;2022-09-03T03:18:07;99506.91;;;8.27;100.00
46876;BME280;32866;50.160;14.768;2022-09-03T03:20:36;99503.81;;;8.25;100.00
46876;BME280;32866;50.160;14.768;2022-09-03T03:23:01;99476.56;;;8.01;100.00
46876;BME280;32866;50.160;14.768;2022-09-03T03:25:31;99496.06;;;8.23;100.00
46876;BME280;32866;50.160;14.768;2022-09-03T03:27:56;99502.50;;;8.33;100.00
46876;BME280;32866;50.160;14.768;2022-09-03T03:30:21;99507.03;;;8.20;100.00
46876;BME280;32866;50.160;14.768;2022-09-03T03:32:47;99504.34;;;7.72;100.00
46876;BME280;32866;50.160;14.768;2022-09-03T03:35:13;99517.91;;;7.52;100.00
46876;BME280;32866;50.160;14.768;2022-09-03T03:37:38;99487.88;;;7.56;100.00
46876;BME280;32866;50.160;14.768;2022-09-03T03:40:04;99489.03;;;7.78;100.00
46876;BME280;32866;50.160;14.768;2022-09-03T03:42:32;99510.50;;;8.00;100.00
46876;BME280;32866;50.160;14.768;2022-09-03T03:44:58;99511.56;;;8.06;100.00
46876;BME280;32866;50.160;14.768;2022-09-03T03:47:23;99486.31;;;7.31;100.00
46876;BME280;32866;50.160;14.768;2022-09-03T03:49:49;99514.81;;;7.50;100.00
46876;BME280;32866;50.160;14.768;2022-09-03T03:52:14;99475.63;;;7.40;100.00
46876;BME280;32866;50.160;14.768;2022-09-03T03:54:39;99493.44;;;7.72;100.00
46876;BME280;32866;50.160;14.768;2022-09-03T03:57:05;99506.00;;;7.90;100.00
46876;BME280;32866;50.160;14.768;2022-09-03T03:59:30;99496.63;;;7.91;100.00
46876;BME280;32866;50.160;14.768;2022-09-03T04:01:55;99501.91;;;8.02;100.00
46876;BME280;32866;50.160;14.768;2022-09-03T04:04:21;99503.16;;;7.73;100.00
46876;BME280;32866;50.160;14.768;2022-09-03T04:06:46;99494.63;;;7.71;100.00
46876;BME280;32866;50.160;14.768;2022-09-03T04:09:11;99490.34;;;7.47;100.00
46876;BME280;32866;50.160;14.768;2022-09-03T04:11:37;99508.38;;;7.64;100.00
46876;BME280;32866;50.160;14.768;2022-09-03T04:14:03;99488.28;;;7.27;100.00
46876;BME280;32866;50.160;14.768;2022-09-03T04:16:28;99506.47;;;7.37;100.00
46876;BME280;32866;50.160;14.768;2022-09-03T04:18:55;99508.50;;;7.57;100.00
46876;BME280;32866;50.160;14.768;2022-09-03T04:21:22;99508.75;;;7.66;100.00
46876;BME280;32866;50.160;14.768;2022-09-03T04:23:49;99462.06;;;7.37;100.00
46876;BME280;32866;50.160;14.768;2022-09-03T04:26:21;99503.22;;;7.19;100.00
46876;BME280;32866;50.160;14.768;2022-09-03T04:28:47;99492.31;;;7.19;100.00
46876;BME280;32866;50.160;14.768;2022-09-03T04:31:14;99498.16;;;7.21;100.00
46876;BME280;32866;50.160;14.768;2022-09-03T04:33:40;99494.38;;;7.38;100.00
46876;BME280;32866;50.160;14.768;2022-09-03T04:36:11;99489.72;;;7.63;100.00
46876;BME280;32866;50.160;14.768;2022-09-03T04:38:40;99487.28;;;7.68;100.00
46876;BME280;32866;50.160;14.768;2022-09-03T04:41:07;99502.44;;;7.46;100.00
46876;BME280;32866;50.160;14.768;2022-09-03T04:43:33;99482.44;;;7.01;100.00
46876;BME280;32866;50.160;14.768;2022-09-03T04:46:01;99484.50;;;7.21;100.00
46876;BME280;32866;50.160;14.768;2022-09-03T04:48:28;99498.78;;;7.56;100.00
46876;BME280;32866;50.160;14.768;2022-09-03T04:50:54;99501.31;;;7.43;100.00
46876;BME280;32866;50.160;14.768;2022-09-03T04:53:33;99463.66;;;7.11;100.00
46876;BME280;32866;50.160;14.768;2022-09-03T04:55:59;99472.88;;;7.17;100.00
46876;BME280;32866;50.160;14.768;2022-09-03T04:58:25;99490.00;;;7.68;100.00
46876;BME280;32866;50.160;14.768;2022-09-03T05:00:50;99482.47;;;7.76;100.00
46876;BME280;32866;50.160;14.768;2022-09-03T05:03:16;99480.56;;;7.73;100.00
46876;BME280;32866;50.160;14.768;2022-09-03T05:05:41;99486.78;;;7.97;100.00
46876;BME280;32866;50.160;14.768;2022-09-03T05:08:07;99483.63;;;7.98;100.00
46876;BME280;32866;50.160;14.768;2022-09-03T05:10:32;99483.50;;;8.26;100.00
46876;BME280;32866;50.160;14.768;2022-09-03T05:13:03;99480.84;;;8.42;100.00
46876;BME280;32866;50.160;14.768;2022-09-03T05:15:30;99472.50;;;8.29;100.00
46876;BME280;32866;50.160;14.768;2022-09-03T05:17:57;99457.53;;;8.38;100.00
46876;BME280;32866;50.160;14.768;2022-09-03T05:20:22;99475.41;;;8.62;100.00
46876;BME280;32866;50.160;14.768;2022-09-03T05:22:49;99489.19;;;8.75;100.00
46876;BME280;32866;50.160;14.768;2022-09-03T05:25:14;99472.59;;;8.66;100.00
46876;BME280;32866;50.160;14.768;2022-09-03T05:27:40;99496.41;;;8.85;100.00
46876;BME280;32866;50.160;14.768;2022-09-03T05:30:05;99481.63;;;8.63;100.00
46876;BME280;32866;50.160;14.768;2022-09-03T05:32:31;99471.66;;;8.72;100.00
46876;BME280;32866;50.160;14.768;2022-09-03T05:34:57;99494.53;;;8.99;100.00
46876;BME280;32866;50.160;14.768;2022-09-03T05:37:22;99489.75;;;9.03;100.00
46876;BME280;32866;50.160;14.768;2022-09-03T05:39:48;99498.25;;;9.41;100.00
46876;BME280;32866;50.160;14.768;2022-09-03T05:42:13;99513.13;;;9.40;100.00
46876;BME280;32866;50.160;14.768;2022-09-03T05:44:39;99512.88;;;9.51;100.00
46876;BME280;32866;50.160;14.768;2022-09-03T05:47:04;99492.88;;;9.38;100.00
46876;BME280;32866;50.160;14.768;2022-09-03T05:49:30;99513.72;;;9.64;100.00
46876;BME280;32866;50.160;14.768;2022-09-03T05:51:56;99504.16;;;9.56;100.00
46876;BME280;32866;50.160;14.768;2022-09-03T05:54:22;99493.81;;;9.64;100.00
46876;BME280;32866;50.160;14.768;2022-09-03T05:56:47;99485.28;;;9.62;100.00
46876;BME280;32866;50.160;14.768;2022-09-03T05:59:12;99487.91;;;9.65;100.00
46876;BME280;32866;50.160;14.768;2022-09-03T06:01:41;99507.09;;;9.95;100.00
46876;BME280;32866;50.160;14.768;2022-09-03T06:04:09;99509.28;;;10.16;100.00
46876;BME280;32866;50.160;14.768;2022-09-03T06:06:37;99476.00;;;10.18;100.00
46876;BME280;32866;50.160;14.768;2022-09-03T06:09:07;99515.78;;;10.52;100.00
46876;BME280;32866;50.160;14.768;2022-09-03T06:11:34;99519.66;;;10.67;100.00
46876;BME280;32866;50.160;14.768;2022-09-03T06:14:02;99516.47;;;10.56;100.00
46876;BME280;32866;50.160;14.768;2022-09-03T06:16:33;99518.84;;;10.54;100.00
46876;BME280;32866;50.160;14.768;2022-09-03T06:18:59;99495.84;;;10.51;100.00
46876;BME280;32866;50.160;14.768;2022-09-03T06:21:25;99517.47;;;10.62;100.00
46876;BME280;32866;50.160;14.768;2022-09-03T06:23:55;99517.28;;;10.69;100.00
46876;BME280;32866;50.160;14.768;2022-09-03T06:26:21;99505.19;;;10.67;100.00
46876;BME280;32866;50.160;14.768;2022-09-03T06:28:47;99521.16;;;11.10;100.00
46876;BME280;32866;50.160;14.768;2022-09-03T06:31:15;99524.00;;;11.32;100.00
46876;BME280;32866;50.160;14.768;2022-09-03T06:33:42;99524.56;;;11.40;100.00
46876;BME280;32866;50.160;14.768;2022-09-03T06:36:13;99527.75;;;11.51;100.00
46876;BME280;32866;50.160;14.768;2022-09-03T06:38:40;99532.13;;;11.62;100.00
46876;BME280;32866;50.160;14.768;2022-09-03T06:41:10;99526.63;;;11.62;100.00
46876;BME280;32866;50.160;14.768;2022-09-03T06:43:41;99526.69;;;11.71;100.00
46876;BME280;32866;50.160;14.768;2022-09-03T06:46:09;99514.81;;;11.87;100.00
46876;BME280;32866;50.160;14.768;2022-09-03T06:48:37;99500.13;;;11.81;100.00
46876;BME280;32866;50.160;14.768;2022-09-03T06:51:05;99526.44;;;12.04;100.00
46876;BME280;32866;50.160;14.768;2022-09-03T06:53:33;99530.00;;;11.79;100.00
46876;BME280;32866;50.160;14.768;2022-09-03T06:56:01;99526.88;;;11.89;100.00
46876;BME280;32866;50.160;14.768;2022-09-03T06:58:31;99514.94;;;11.83;100.00
46876;BME280;32866;50.160;14.768;2022-09-03T07:01:01;99521.66;;;12.17;100.00
46876;BME280;32866;50.160;14.768;2022-09-03T07:03:27;99526.69;;;12.54;100.00
46876;BME280;32866;50.160;14.768;2022-09-03T07:05:52;99492.78;;;12.79;100.00
46876;BME280;32866;50.160;14.768;2022-09-03T07:08:17;99519.63;;;13.38;100.00
46876;BME280;32866;50.160;14.768;2022-09-03T07:10:46;99517.88;;;13.81;100.00
46876;BME280;32866;50.160;14.768;2022-09-03T07:13:12;99498.94;;;13.83;99.92
46876;BME280;32866;50.160;14.768;2022-09-03T07:15:37;99516.38;;;14.26;100.00
46876;BME280;32866;50.160;14.768;2022-09-03T07:18:04;99517.91;;;14.73;100.00
46876;BME280;32866;50.160;14.768;2022-09-03T07:20:29;99529.66;;;14.83;95.49
46876;BME280;32866;50.160;14.768;2022-09-03T07:22:55;99515.34;;;15.36;95.70
46876;BME280;32866;50.160;14.768;2022-09-03T07:25:21;99530.78;;;15.52;96.52
46876;BME280;32866;50.160;14.768;2022-09-03T07:27:46;99526.31;;;15.55;94.03
46876;BME280;32866;50.160;14.768;2022-09-03T07:30:15;99523.59;;;15.70;90.19
46876;BME280;32866;50.160;14.768;2022-09-03T07:32:40;99524.34;;;16.04;91.36
46876;BME280;32866;50.160;14.768;2022-09-03T07:35:06;99492.13;;;16.01;87.16
46876;BME280;32866;50.160;14.768;2022-09-03T07:37:32;99525.50;;;16.81;83.18
46876;BME280;32866;50.160;14.768;2022-09-03T07:39:57;99525.78;;;17.13;83.68
46876;BME280;32866;50.160;14.768;2022-09-03T07:42:23;99519.91;;;17.25;89.05
46876;BME280;32866;50.160;14.768;2022-09-03T07:44:49;99515.03;;;17.35;86.02
46876;BME280;32866;50.160;14.768;2022-09-03T07:47:14;99509.13;;;17.84;80.60
46876;BME280;32866;50.160;14.768;2022-09-03T07:49:40;99494.84;;;18.11;74.17
46876;BME280;32866;50.160;14.768;2022-09-03T07:52:05;99495.41;;;18.15;76.27
46876;BME280;32866;50.160;14.768;2022-09-03T07:54:32;99497.69;;;17.76;77.24
46876;BME280;32866;50.160;14.768;2022-09-03T07:56:57;99489.72;;;16.92;78.84
46876;BME280;32866;50.160;14.768;2022-09-03T07:59:23;99518.34;;;16.59;82.64
46876;BME280;32866;50.160;14.768;2022-09-03T08:01:48;99518.53;;;17.00;81.42
46876;BME280;32866;50.160;14.768;2022-09-03T08:04:15;99500.56;;;17.11;79.86
46876;BME280;32866;50.160;14.768;2022-09-03T08:06:40;99509.31;;;17.24;81.38
46876;BME280;32866;50.160;14.768;2022-09-03T08:09:08;99518.91;;;16.63;83.74
46876;BME280;32866;50.160;14.768;2022-09-03T08:11:37;99517.75;;;17.50;81.00
46876;BME280;32866;50.160;14.768;2022-09-03T08:14:07;99517.88;;;17.41;82.01
46876;BME280;32866;50.160;14.768;2022-09-03T08:16:36;99517.34;;;17.78;81.41
46876;BME280;32866;50.160;14.768;2022-09-03T08:19:02;99513.41;;;17.64;77.56
46876;BME280;32866;50.160;14.768;2022-09-03T08:21:27;99512.34;;;17.97;75.20
46876;BME280;32866;50.160;14.768;2022-09-03T08:23:55;99512.56;;;18.20;80.91
46876;BME280;32866;50.160;14.768;2022-09-03T08:26:26;99521.19;;;18.22;81.93
46876;BME280;32866;50.160;14.768;2022-09-03T08:28:51;99523.00;;;18.04;79.94
46876;BME280;32866;50.160;14.768;2022-09-03T08:31:20;99519.84;;;18.38;77.56
46876;BME280;32866;50.160;14.768;2022-09-03T08:33:47;99526.75;;;18.22;81.82
46876;BME280;32866;50.160;14.768;2022-09-03T08:36:15;99516.22;;;18.05;78.70
46876;BME280;32866;50.160;14.768;2022-09-03T08:38:42;99526.75;;;18.01;80.12
46876;BME280;32866;50.160;14.768;2022-09-03T08:44:05;99529.50;;;18.01;81.29
46876;BME280;32866;50.160;14.768;2022-09-03T08:46:56;99521.13;;;18.16;78.40
46876;BME280;32866;50.160;14.768;2022-09-03T08:49:30;99520.00;;;18.28;77.54
46876;BME280;32866;50.160;14.768;2022-09-03T08:52:01;99514.34;;;18.43;76.62
46876;BME280;32866;50.160;14.768;2022-09-03T08:54:30;99506.44;;;18.36;74.81
46876;BME280;32866;50.160;14.768;2022-09-03T08:57:00;99514.78;;;18.62;77.68
46876;BME280;32866;50.160;14.768;2022-09-03T08:59:27;99509.88;;;18.51;80.04
46876;BME280;32866;50.160;14.768;2022-09-03T09:02:14;99511.16;;;18.30;75.52
46876;BME280;32866;50.160;14.768;2022-09-03T09:05:06;99511.88;;;18.25;78.59
46876;BME280;32866;50.160;14.768;2022-09-03T09:07:41;99511.06;;;18.45;76.07
46876;BME280;32866;50.160;14.768;2022-09-03T09:10:22;99507.44;;;18.59;77.41
46876;BME280;32866;50.160;14.768;2022-09-03T09:16:12;99502.63;;;18.60;74.99
46876;BME280;32866;50.160;14.768;2022-09-03T09:21:26;99499.88;;;18.33;75.10
46876;BME280;32866;50.160;14.768;2022-09-03T09:23:52;99491.50;;;18.28;79.02
46876;BME280;32866;50.160;14.768;2022-09-03T09:26:21;99490.28;;;18.08;78.44
46876;BME280;32866;50.160;14.768;2022-09-03T09:28:50;99486.38;;;18.21;75.97
46876;BME280;32866;50.160;14.768;2022-09-03T09:31:17;99491.00;;;18.56;81.83
46876;BME280;32866;50.160;14.768;2022-09-03T09:33:44;99489.09;;;18.67;77.63
46876;BME280;32866;50.160;14.768;2022-09-03T09:36:13;99483.22;;;18.60;75.30
46876;BME280;32866;50.160;14.768;2022-09-03T09:38:41;99489.03;;;18.88;74.03
46876;BME280;32866;50.160;14.768;2022-09-03T09:43:34;99474.59;;;18.52;73.52
46876;BME280;32866;50.160;14.768;2022-09-03T09:46:04;99485.88;;;18.75;74.17
46876;BME280;32866;50.160;14.768;2022-09-03T09:48:33;99484.66;;;18.81;73.51
46876;BME280;32866;50.160;14.768;2022-09-03T09:51:20;99486.59;;;18.69;73.90
46876;BME280;32866;50.160;14.768;2022-09-03T09:53:47;99461.84;;;18.66;74.24
46876;BME280;32866;50.160;14.768;2022-09-03T09:56:24;99481.75;;;18.64;75.66
46876;BME280;32866;50.160;14.768;2022-09-03T09:59:01;99479.44;;;18.57;74.35
46876;BME280;32866;50.160;14.768;2022-09-03T10:01:26;99481.22;;;18.60;79.06
46876;BME280;32866;50.160;14.768;2022-09-03T10:03:59;99454.72;;;18.59;73.15
46876;BME280;32866;50.160;14.768;2022-09-03T10:06:28;99465.22;;;18.81;75.98
46876;BME280;32866;50.160;14.768;2022-09-03T10:09:20;99448.91;;;18.57;78.01
46876;BME280;32866;50.160;14.768;2022-09-03T10:12:07;99467.97;;;18.76;74.73
46876;BME280;32866;50.160;14.768;2022-09-03T10:14:39;99474.41;;;18.87;78.75
46876;BME280;32866;50.160;14.768;2022-09-03T10:17:30;99450.81;;;19.09;70.67
46876;BME280;32866;50.160;14.768;2022-09-03T10:20:13;99469.28;;;19.61;74.46
46876;BME280;32866;50.160;14.768;2022-09-03T10:28:31;99468.50;;;20.32;70.35
46876;BME280;32866;50.160;14.768;2022-09-03T10:34:28;99467.00;;;20.48;68.10
46876;BME280;32866;50.160;14.768;2022-09-03T10:43:03;99460.41;;;20.28;70.85
46876;BME280;32866;50.160;14.768;2022-09-03T10:46:01;99451.84;;;20.60;77.05
46876;BME280;32866;50.160;14.768;2022-09-03T10:51:24;99455.41;;;20.72;68.83
46876;BME280;32866;50.160;14.768;2022-09-03T10:54:10;99447.53;;;20.99;71.51
46876;BME280;32866;50.160;14.768;2022-09-03T11:05:26;99435.41;;;21.77;65.21
46876;BME280;32866;50.160;14.768;2022-09-03T11:08:04;99444.84;;;22.10;65.58
46876;BME280;32866;50.160;14.768;2022-09-03T11:10:39;99433.84;;;22.29;60.80
46876;BME280;32866;50.160;14.768;2022-09-03T11:18:42;99438.06;;;22.41;59.80
46876;BME280;32866;50.160;14.768;2022-09-03T11:21:12;99435.38;;;22.91;58.91
46876;BME280;32866;50.160;14.768;2022-09-03T11:23:47;99428.13;;;23.07;56.11
46876;BME280;32866;50.160;14.768;2022-09-03T11:26:17;99427.06;;;23.34;58.16
46876;BME280;32866;50.160;14.768;2022-09-03T11:36:32;99416.34;;;23.39;52.92
46876;BME280;32866;50.160;14.768;2022-09-03T11:38:58;99419.31;;;23.65;56.33
46876;BME280;32866;50.160;14.768;2022-09-03T11:41:26;99420.44;;;23.76;53.03
46876;BME280;32866;50.160;14.768;2022-09-03T11:43:53;99421.72;;;23.75;58.41
46876;BME280;32866;50.160;14.768;2022-09-03T11:48:51;99421.50;;;24.11;56.51
46876;BME280;32866;50.160;14.768;2022-09-03T11:51:36;99420.03;;;24.42;49.31
46876;BME280;32866;50.160;14.768;2022-09-03T11:56:45;99403.75;;;24.40;50.94
46876;BME280;32866;50.160;14.768;2022-09-03T11:59:24;99417.19;;;24.61;51.19
46876;BME280;32866;50.160;14.768;2022-09-03T12:02:00;99408.09;;;24.55;50.91
46876;BME280;32866;50.160;14.768;2022-09-03T12:13:05;99401.81;;;24.35;44.15
46876;BME280;32866;50.160;14.768;2022-09-03T12:15:53;99401.50;;;23.25;47.68
46876;BME280;32866;50.160;14.768;2022-09-03T12:18:32;99401.69;;;23.70;50.73
46876;BME280;32866;50.160;14.768;2022-09-03T12:25:53;99392.56;;;24.40;47.20
46876;BME280;32866;50.160;14.768;2022-09-03T12:28:21;99394.81;;;25.14;47.84
46876;BME280;32866;50.160;14.768;2022-09-03T12:30:48;99381.03;;;26.12;48.73
46876;BME280;32866;50.160;14.768;2022-09-03T12:33:21;99394.69;;;25.47;46.58
46876;BME280;32866;50.160;14.768;2022-09-03T12:35:56;99378.66;;;24.80;44.35
46876;BME280;32866;50.160;14.768;2022-09-03T12:38:23;99393.75;;;25.31;45.07
46876;BME280;32866;50.160;14.768;2022-09-03T12:40:49;99373.25;;;25.49;49.39
46876;BME280;32866;50.160;14.768;2022-09-03T12:43:16;99391.84;;;25.73;47.83
46876;BME280;32866;50.160;14.768;2022-09-03T12:45:44;99393.53;;;25.29;50.63
46876;BME280;32866;50.160;14.768;2022-09-03T12:48:18;99387.06;;;25.21;45.25
46876;BME280;32866;50.160;14.768;2022-09-03T12:50:45;99375.19;;;25.14;48.08
46876;BME280;32866;50.160;14.768;2022-09-03T12:53:13;99380.34;;;25.37;46.35
46876;BME280;32866;50.160;14.768;2022-09-03T13:01:26;99363.13;;;24.93;47.28
46876;BME280;32866;50.160;14.768;2022-09-03T13:06:14;99368.25;;;24.16;48.89
46876;BME280;32866;50.160;14.768;2022-09-03T13:08:46;99361.72;;;24.27;50.39
46876;BME280;32866;50.160;14.768;2022-09-03T13:11:18;99353.63;;;24.56;49.60
46876;BME280;32866;50.160;14.768;2022-09-03T13:13:55;99333.72;;;23.95;50.76
46876;BME280;32866;50.160;14.768;2022-09-03T13:16:50;99355.94;;;24.38;46.83
46876;BME280;32866;50.160;14.768;2022-09-03T13:19:44;99329.16;;;24.11;50.94
46876;BME280;32866;50.160;14.768;2022-09-03T13:24:58;99342.75;;;24.66;47.68
46876;BME280;32866;50.160;14.768;2022-09-03T13:27:37;99341.25;;;23.86;50.10
46876;BME280;32866;50.160;14.768;2022-09-03T13:30:10;99344.94;;;23.38;49.71
46876;BME280;32866;50.160;14.768;2022-09-03T13:35:15;99344.75;;;22.86;54.64
46876;BME280;32866;50.160;14.768;2022-09-03T13:37:51;99344.00;;;23.10;52.74
46876;BME280;32866;50.160;14.768;2022-09-03T13:40:20;99333.13;;;22.82;52.53
46876;BME280;32866;50.160;14.768;2022-09-03T13:42:52;99330.31;;;22.82;54.44
46876;BME280;32866;50.160;14.768;2022-09-03T13:45:40;99314.50;;;22.66;55.83
46876;BME280;32866;50.160;14.768;2022-09-03T13:48:16;99286.44;;;22.58;54.54
46876;BME280;32866;50.160;14.768;2022-09-03T13:51:21;99329.69;;;22.46;55.01
46876;BME280;32866;50.160;14.768;2022-09-03T13:54:02;99302.28;;;22.93;53.29
46876;BME280;32866;50.160;14.768;2022-09-03T13:59:39;99317.59;;;23.11;53.95
46876;BME280;32866;50.160;14.768;2022-09-03T14:07:41;99321.97;;;23.45;54.23
46876;BME280;32866;50.160;14.768;2022-09-03T14:13:03;99304.13;;;22.85;53.25
46876;BME280;32866;50.160;14.768;2022-09-03T14:15:39;99299.88;;;22.59;53.93
46876;BME280;32866;50.160;14.768;2022-09-03T14:18:14;99297.09;;;22.78;53.47
46876;BME280;32866;50.160;14.768;2022-09-03T14:20:46;99292.31;;;22.54;54.45
46876;BME280;32866;50.160;14.768;2022-09-03T14:23:26;99292.47;;;22.62;55.08
46876;BME280;32866;50.160;14.768;2022-09-03T14:25:57;99300.59;;;22.60;57.27
46876;BME280;32866;50.160;14.768;2022-09-03T14:31:10;99296.38;;;22.53;56.03
46876;BME280;32866;50.160;14.768;2022-09-03T14:41:53;99290.13;;;22.11;60.20
46876;BME280;32866;50.160;14.768;2022-09-03T14:50:55;99291.25;;;22.57;56.54
46876;BME280;32866;50.160;14.768;2022-09-03T15:02:31;99281.06;;;22.35;57.13
46876;BME280;32866;50.160;14.768;2022-09-03T15:27:53;99273.53;;;21.58;59.86
46876;BME280;32866;50.160;14.768;2022-09-03T15:30:34;99271.56;;;21.53;63.64
46876;BME280;32866;50.160;14.768;2022-09-03T15:33:09;99279.16;;;21.53;67.50
46876;BME280;32866;50.160;14.768;2022-09-03T15:35:52;99269.53;;;21.54;64.31
46876;BME280;32866;50.160;14.768;2022-09-03T15:38:27;99277.06;;;21.64;60.76
46876;BME280;32866;50.160;14.768;2022-09-03T15:41:00;99272.50;;;21.67;61.17
46876;BME280;32866;50.160;14.768;2022-09-03T15:43:31;99262.31;;;21.70;59.27
46876;BME280;32866;50.160;14.768;2022-09-03T15:46:03;99266.13;;;21.72;59.36
46876;BME280;32866;50.160;14.768;2022-09-03T15:48:55;99266.28;;;21.85;56.82
46876;BME280;32866;50.160;14.768;2022-09-03T15:51:30;99271.19;;;21.68;56.78
46876;BME280;32866;50.160;14.768;2022-09-03T15:54:11;99274.19;;;21.76;55.91
46876;BME280;32866;50.160;14.768;2022-09-03T15:56:42;99266.50;;;21.52;57.97
46876;BME280;32866;50.160;14.768;2022-09-03T15:59:25;99275.13;;;21.48;59.29
46876;BME280;32866;50.160;14.768;2022-09-03T16:02:14;99272.34;;;21.48;60.30
46876;BME280;32866;50.160;14.768;2022-09-03T16:05:07;99280.72;;;21.48;60.87
46876;BME280;32866;50.160;14.768;2022-09-03T16:07:45;99279.25;;;21.36;58.76
46876;BME280;32866;50.160;14.768;2022-09-03T16:10:18;99276.47;;;21.36;59.98
46876;BME280;32866;50.160;14.768;2022-09-03T16:15:29;99279.53;;;21.32;59.66
46876;BME280;32866;50.160;14.768;2022-09-03T16:18:22;99287.19;;;21.15;62.37
46876;BME280;32866;50.160;14.768;2022-09-03T16:21:00;99273.63;;;20.94;63.46
46876;BME280;32866;50.160;14.768;2022-09-03T16:26:20;99289.56;;;20.93;63.77
46876;BME280;32866;50.160;14.768;2022-09-03T16:28:59;99287.56;;;20.88;63.98